sensor_id;sensor_type;location;lat;lon;timestamp;temperature;humidity
19536;HTU21D;9913;51.168;4.124;2024-03-08T00:00:24;5.06;115.66
19536;HTU21D;9913;51.168;4.124;2024-03-08T00:02:52;5.00;115.27
19536;HTU21D;9913;51.168;4.124;2024-03-08T00:05:21;4.97;114.19
19536;HTU21D;9913;51.168;4.124;2024-03-08T00:07:52;4.90;113.19
19536;HTU21D;9913;51.168;4.124;2024-03-08T00:10:21;4.94;112.76
19536;HTU21D;9913;51.168;4.124;2024-03-08T00:12:53;4.95;112.83
19536;HTU21D;9913;51.168;4.124;2024-03-08T00:15:22;4.86;110.77
19536;HTU21D;9913;51.168;4.124;2024-03-08T00:17:50;4.88;111.47
19536;HTU21D;9913;51.168;4.124;2024-03-08T00:20:19;4.82;110.74
19536;HTU21D;9913;51.168;4.124;2024-03-08T00:22:48;4.87;112.31
19536;HTU21D;9913;51.168;4.124;2024-03-08T00:25:17;4.86;112.45
19536;HTU21D;9913;51.168;4.124;2024-03-08T00:27:46;4.87;113.16
19536;HTU21D;9913;51.168;4.124;2024-03-08T00:30:17;4.83;113.65
19536;HTU21D;9913;51.168;4.124;2024-03-08T00:32:45;4.81;113.43
19536;HTU21D;9913;51.168;4.124;2024-03-08T00:35:14;4.80;113.77
19536;HTU21D;9913;51.168;4.124;2024-03-08T00:37:42;4.82;115.52
19536;HTU21D;9913;51.168;4.124;2024-03-08T00:40:14;4.81;115.71
19536;HTU21D;9913;51.168;4.124;2024-03-08T00:42:44;4.82;117.34
19536;HTU21D;9913;51.168;4.124;2024-03-08T00:45:12;4.81;118.47
19536;HTU21D;9913;51.168;4.124;2024-03-08T00:47:41;4.79;-5.93
19536;HTU21D;9913;51.168;4.124;2024-03-08T00:50:11;4.76;-5.04
19536;HTU21D;9913;51.168;4.124;2024-03-08T00:52:40;4.77;-3.52
19536;HTU21D;9913;51.168;4.124;2024-03-08T00:55:09;4.69;-2.92
19536;HTU21D;9913;51.168;4.124;2024-03-08T00:57:38;4.67;-3.34
19536;HTU21D;9913;51.168;4.124;2024-03-08T01:00:09;4.67;-2.83
19536;HTU21D;9913;51.168;4.124;2024-03-08T01:02:40;4.61;-3.25
19536;HTU21D;9913;51.168;4.124;2024-03-08T01:05:08;4.66;-2.76
19536;HTU21D;9913;51.168;4.124;2024-03-08T01:07:37;4.66;-2.20
19536;HTU21D;9913;51.168;4.124;2024-03-08T01:10:06;4.67;-1.62
19536;HTU21D;9913;51.168;4.124;2024-03-08T01:12:37;4.64;-1.15
19536;HTU21D;9913;51.168;4.124;2024-03-08T01:15:08;4.61;-1.70
19536;HTU21D;9913;51.168;4.124;2024-03-08T01:17:37;4.54;-1.27
19536;HTU21D;9913;51.168;4.124;2024-03-08T01:20:07;4.51;-1.96
19536;HTU21D;9913;51.168;4.124;2024-03-08T01:22:38;4.52;-1.29
19536;HTU21D;9913;51.168;4.124;2024-03-08T01:25:07;4.45;-1.51
19536;HTU21D;9913;51.168;4.124;2024-03-08T01:27:36;4.51;-0.28
19536;HTU21D;9913;51.168;4.124;2024-03-08T01:30:06;4.47;-0.46
19536;HTU21D;9913;51.168;4.124;2024-03-08T01:32:38;4.41;-0.76
19536;HTU21D;9913;51.168;4.124;2024-03-08T01:35:07;4.33;-0.96
19536;HTU21D;9913;51.168;4.124;2024-03-08T01:37:37;4.36;-0.23
19536;HTU21D;9913;51.168;4.124;2024-03-08T01:40:07;4.41;0.24
19536;HTU21D;9913;51.168;4.124;2024-03-08T01:42:36;4.29;-0.41
19536;HTU21D;9913;51.168;4.124;2024-03-08T01:45:06;4.26;-0.28
19536;HTU21D;9913;51.168;4.124;2024-03-08T01:47:35;4.29;0.02
19536;HTU21D;9913;51.168;4.124;2024-03-08T01:50:06;4.29;-0.02
19536;HTU21D;9913;51.168;4.124;2024-03-08T01:52:35;4.23;-0.35
19536;HTU21D;9913;51.168;4.124;2024-03-08T01:55:06;4.22;-0.07
19536;HTU21D;9913;51.168;4.124;2024-03-08T01:57:35;4.19;-0.34
19536;HTU21D;9913;51.168;4.124;2024-03-08T02:00:06;4.20;0.08
19536;HTU21D;9913;51.168;4.124;2024-03-08T02:02:38;4.17;0.22
19536;HTU21D;9913;51.168;4.124;2024-03-08T02:05:12;4.16;0.84
19536;HTU21D;9913;51.168;4.124;2024-03-08T02:07:41;4.07;0.03
19536;HTU21D;9913;51.168;4.124;2024-03-08T02:10:11;4.07;1.09
19536;HTU21D;9913;51.168;4.124;2024-03-08T02:12:40;4.14;0.96
19536;HTU21D;9913;51.168;4.124;2024-03-08T02:15:08;4.13;-0.02
19536;HTU21D;9913;51.168;4.124;2024-03-08T02:17:38;4.16;1.51
19536;HTU21D;9913;51.168;4.124;2024-03-08T02:20:07;4.12;1.45
19536;HTU21D;9913;51.168;4.124;2024-03-08T02:22:38;4.07;1.00
19536;HTU21D;9913;51.168;4.124;2024-03-08T02:25:08;4.09;1.35
19536;HTU21D;9913;51.168;4.124;2024-03-08T02:27:36;3.99;1.33
19536;HTU21D;9913;51.168;4.124;2024-03-08T02:30:06;4.05;1.61
19536;HTU21D;9913;51.168;4.124;2024-03-08T02:32:34;4.01;1.87
19536;HTU21D;9913;51.168;4.124;2024-03-08T02:35:04;4.01;1.64
19536;HTU21D;9913;51.168;4.124;2024-03-08T02:37:33;3.85;1.14
19536;HTU21D;9913;51.168;4.124;2024-03-08T02:40:03;3.97;2.14
19536;HTU21D;9913;51.168;4.124;2024-03-08T02:42:32;3.89;1.58
19536;HTU21D;9913;51.168;4.124;2024-03-08T02:45:01;3.86;0.97
19536;HTU21D;9913;51.168;4.124;2024-03-08T02:47:29;3.86;1.55
19536;HTU21D;9913;51.168;4.124;2024-03-08T02:49:58;3.85;1.55
19536;HTU21D;9913;51.168;4.124;2024-03-08T02:52:28;3.80;1.58
19536;HTU21D;9913;51.168;4.124;2024-03-08T02:54:57;3.83;1.79
19536;HTU21D;9913;51.168;4.124;2024-03-08T02:57:27;3.83;2.43
19536;HTU21D;9913;51.168;4.124;2024-03-08T02:59:56;3.77;1.19
19536;HTU21D;9913;51.168;4.124;2024-03-08T03:02:26;3.77;2.04
19536;HTU21D;9913;51.168;4.124;2024-03-08T03:04:55;3.78;2.28
19536;HTU21D;9913;51.168;4.124;2024-03-08T03:07:23;3.70;1.94
19536;HTU21D;9913;51.168;4.124;2024-03-08T03:09:54;3.69;2.00
19536;HTU21D;9913;51.168;4.124;2024-03-08T03:12:23;3.65;2.00
19536;HTU21D;9913;51.168;4.124;2024-03-08T03:14:53;3.67;2.29
19536;HTU21D;9913;51.168;4.124;2024-03-08T03:17:21;3.65;2.63
19536;HTU21D;9913;51.168;4.124;2024-03-08T03:19:50;3.62;2.51
19536;HTU21D;9913;51.168;4.124;2024-03-08T03:22:18;3.59;2.29
19536;HTU21D;9913;51.168;4.124;2024-03-08T03:24:47;3.62;2.44
19536;HTU21D;9913;51.168;4.124;2024-03-08T03:27:16;3.58;1.95
19536;HTU21D;9913;51.168;4.124;2024-03-08T03:29:44;3.56;2.26
19536;HTU21D;9913;51.168;4.124;2024-03-08T03:32:15;3.57;2.52
19536;HTU21D;9913;51.168;4.124;2024-03-08T03:34:45;3.49;1.62
19536;HTU21D;9913;51.168;4.124;2024-03-08T03:37:13;3.55;2.49
19536;HTU21D;9913;51.168;4.124;2024-03-08T03:39:42;3.52;2.70
19536;HTU21D;9913;51.168;4.124;2024-03-08T03:42:16;3.45;2.03
19536;HTU21D;9913;51.168;4.124;2024-03-08T03:44:45;3.45;2.59
19536;HTU21D;9913;51.168;4.124;2024-03-08T03:47:16;3.45;1.99
19536;HTU21D;9913;51.168;4.124;2024-03-08T03:49:44;3.42;2.53
19536;HTU21D;9913;51.168;4.124;2024-03-08T03:52:13;3.42;2.88
19536;HTU21D;9913;51.168;4.124;2024-03-08T03:54:42;3.41;2.08
19536;HTU21D;9913;51.168;4.124;2024-03-08T03:57:11;3.43;2.77
19536;HTU21D;9913;51.168;4.124;2024-03-08T03:59:40;3.41;2.76
19536;HTU21D;9913;51.168;4.124;2024-03-08T04:02:09;3.36;2.59
19536;HTU21D;9913;51.168;4.124;2024-03-08T04:04:39;3.39;2.71
19536;HTU21D;9913;51.168;4.124;2024-03-08T04:07:07;3.32;2.38
19536;HTU21D;9913;51.168;4.124;2024-03-08T04:09:38;3.28;2.51
19536;HTU21D;9913;51.168;4.124;2024-03-08T04:12:06;3.29;2.09
19536;HTU21D;9913;51.168;4.124;2024-03-08T04:14:39;3.29;1.21
19536;HTU21D;9913;51.168;4.124;2024-03-08T04:17:08;3.27;2.20
19536;HTU21D;9913;51.168;4.124;2024-03-08T04:19:39;3.25;2.19
19536;HTU21D;9913;51.168;4.124;2024-03-08T04:22:08;3.23;2.43
19536;HTU21D;9913;51.168;4.124;2024-03-08T04:24:36;3.21;2.19
19536;HTU21D;9913;51.168;4.124;2024-03-08T04:27:05;3.21;2.68
19536;HTU21D;9913;51.168;4.124;2024-03-08T04:29:33;3.14;1.71
19536;HTU21D;9913;51.168;4.124;2024-03-08T04:32:03;3.16;1.85
19536;HTU21D;9913;51.168;4.124;2024-03-08T04:34:32;3.10;2.26
19536;HTU21D;9913;51.168;4.124;2024-03-08T04:37:02;3.15;1.69
19536;HTU21D;9913;51.168;4.124;2024-03-08T04:39:32;3.11;2.44
19536;HTU21D;9913;51.168;4.124;2024-03-08T04:42:02;3.06;1.88
19536;HTU21D;9913;51.168;4.124;2024-03-08T04:44:32;3.08;1.34
19536;HTU21D;9913;51.168;4.124;2024-03-08T04:47:01;3.08;2.16
19536;HTU21D;9913;51.168;4.124;2024-03-08T04:49:30;3.05;2.08
19536;HTU21D;9913;51.168;4.124;2024-03-08T04:51:58;3.05;2.29
19536;HTU21D;9913;51.168;4.124;2024-03-08T04:54:28;3.02;1.97
19536;HTU21D;9913;51.168;4.124;2024-03-08T04:56:56;3.00;2.03
19536;HTU21D;9913;51.168;4.124;2024-03-08T04:59:27;2.97;1.35
19536;HTU21D;9913;51.168;4.124;2024-03-08T05:01:55;2.94;1.39
19536;HTU21D;9913;51.168;4.124;2024-03-08T05:04:24;2.93;1.26
19536;HTU21D;9913;51.168;4.124;2024-03-08T05:06:52;2.89;1.09
19536;HTU21D;9913;51.168;4.124;2024-03-08T05:09:21;2.88;1.07
19536;HTU21D;9913;51.168;4.124;2024-03-08T05:11:52;2.87;1.51
19536;HTU21D;9913;51.168;4.124;2024-03-08T05:14:20;2.83;1.11
19536;HTU21D;9913;51.168;4.124;2024-03-08T05:16:49;2.89;0.45
19536;HTU21D;9913;51.168;4.124;2024-03-08T05:19:18;2.86;1.40
19536;HTU21D;9913;51.168;4.124;2024-03-08T05:21:48;2.79;0.68
19536;HTU21D;9913;51.168;4.124;2024-03-08T05:24:17;2.84;0.98
19536;HTU21D;9913;51.168;4.124;2024-03-08T05:26:46;2.80;-0.26
19536;HTU21D;9913;51.168;4.124;2024-03-08T05:29:16;2.79;1.20
19536;HTU21D;9913;51.168;4.124;2024-03-08T05:31:47;2.79;0.97
19536;HTU21D;9913;51.168;4.124;2024-03-08T05:34:16;2.79;0.68
19536;HTU21D;9913;51.168;4.124;2024-03-08T05:36:46;2.79;0.57
19536;HTU21D;9913;51.168;4.124;2024-03-08T05:39:17;2.78;0.87
19536;HTU21D;9913;51.168;4.124;2024-03-08T05:41:46;2.79;0.55
19536;HTU21D;9913;51.168;4.124;2024-03-08T05:44:16;2.79;1.18
19536;HTU21D;9913;51.168;4.124;2024-03-08T05:46:45;2.78;0.81
19536;HTU21D;9913;51.168;4.124;2024-03-08T05:49:14;2.74;0.71
19536;HTU21D;9913;51.168;4.124;2024-03-08T05:51:43;2.68;0.02
19536;HTU21D;9913;51.168;4.124;2024-03-08T05:54:12;2.66;0.31
19536;HTU21D;9913;51.168;4.124;2024-03-08T05:56:45;2.67;-0.06
19536;HTU21D;9913;51.168;4.124;2024-03-08T05:59:16;2.62;-0.37
19536;HTU21D;9913;51.168;4.124;2024-03-08T06:01:45;2.58;0.13
19536;HTU21D;9913;51.168;4.124;2024-03-08T06:04:14;2.56;-0.03
19536;HTU21D;9913;51.168;4.124;2024-03-08T06:06:44;2.51;-0.19
19536;HTU21D;9913;51.168;4.124;2024-03-08T06:09:17;2.55;0.01
19536;HTU21D;9913;51.168;4.124;2024-03-08T06:11:51;2.52;-0.77
19536;HTU21D;9913;51.168;4.124;2024-03-08T06:14:22;2.55;-0.40
19536;HTU21D;9913;51.168;4.124;2024-03-08T06:16:51;2.57;-0.37
19536;HTU21D;9913;51.168;4.124;2024-03-08T06:19:19;2.54;0.16
19536;HTU21D;9913;51.168;4.124;2024-03-08T06:21:48;2.59;-0.14
19536;HTU21D;9913;51.168;4.124;2024-03-08T06:24:16;2.54;-0.25
19536;HTU21D;9913;51.168;4.124;2024-03-08T06:26:45;2.58;-0.08
19536;HTU21D;9913;51.168;4.124;2024-03-08T06:29:13;2.65;0.66
19536;HTU21D;9913;51.168;4.124;2024-03-08T06:31:43;2.62;0.20
19536;HTU21D;9913;51.168;4.124;2024-03-08T06:34:12;2.65;0.67
19536;HTU21D;9913;51.168;4.124;2024-03-08T06:36:42;2.68;0.69
19536;HTU21D;9913;51.168;4.124;2024-03-08T06:39:11;2.64;0.58
19536;HTU21D;9913;51.168;4.124;2024-03-08T06:41:39;2.67;0.41
19536;HTU21D;9913;51.168;4.124;2024-03-08T06:44:08;2.66;-0.02
19536;HTU21D;9913;51.168;4.124;2024-03-08T06:46:36;2.62;0.53
19536;HTU21D;9913;51.168;4.124;2024-03-08T06:49:06;2.66;0.21
19536;HTU21D;9913;51.168;4.124;2024-03-08T06:51:36;2.65;0.59
19536;HTU21D;9913;51.168;4.124;2024-03-08T06:54:05;2.68;-0.40
19536;HTU21D;9913;51.168;4.124;2024-03-08T06:56:36;2.71;0.46
19536;HTU21D;9913;51.168;4.124;2024-03-08T06:59:05;2.70;0.90
19536;HTU21D;9913;51.168;4.124;2024-03-08T07:01:38;2.75;0.74
19536;HTU21D;9913;51.168;4.124;2024-03-08T07:04:08;2.84;0.64
19536;HTU21D;9913;51.168;4.124;2024-03-08T07:06:39;2.85;1.70
19536;HTU21D;9913;51.168;4.124;2024-03-08T07:09:08;2.87;1.27
19536;HTU21D;9913;51.168;4.124;2024-03-08T07:11:36;2.87;1.87
19536;HTU21D;9913;51.168;4.124;2024-03-08T07:14:07;2.95;1.98
19536;HTU21D;9913;51.168;4.124;2024-03-08T07:16:35;2.89;1.93
19536;HTU21D;9913;51.168;4.124;2024-03-08T07:19:04;2.96;2.67
19536;HTU21D;9913;51.168;4.124;2024-03-08T07:21:35;3.00;2.55
19536;HTU21D;9913;51.168;4.124;2024-03-08T07:24:04;3.04;2.22
19536;HTU21D;9913;51.168;4.124;2024-03-08T07:26:51;3.12;3.47
19536;HTU21D;9913;51.168;4.124;2024-03-08T07:29:20;3.13;2.95
19536;HTU21D;9913;51.168;4.124;2024-03-08T07:31:48;3.19;4.41
19536;HTU21D;9913;51.168;4.124;2024-03-08T07:34:28;3.26;3.45
19536;HTU21D;9913;51.168;4.124;2024-03-08T07:37:00;3.36;4.20
19536;HTU21D;9913;51.168;4.124;2024-03-08T07:39:31;3.43;6.53
19536;HTU21D;9913;51.168;4.124;2024-03-08T07:41:59;3.46;4.52
19536;HTU21D;9913;51.168;4.124;2024-03-08T07:44:27;3.55;5.60
19536;HTU21D;9913;51.168;4.124;2024-03-08T07:46:58;3.61;6.03
19536;HTU21D;9913;51.168;4.124;2024-03-08T07:49:26;3.62;6.84
19536;HTU21D;9913;51.168;4.124;2024-03-08T07:51:55;3.68;4.70
19536;HTU21D;9913;51.168;4.124;2024-03-08T07:54:26;3.76;7.28
19536;HTU21D;9913;51.168;4.124;2024-03-08T07:56:55;3.78;7.18
19536;HTU21D;9913;51.168;4.124;2024-03-08T07:59:23;3.88;7.42
19536;HTU21D;9913;51.168;4.124;2024-03-08T08:01:51;3.97;9.03
19536;HTU21D;9913;51.168;4.124;2024-03-08T08:04:20;4.02;8.16
19536;HTU21D;9913;51.168;4.124;2024-03-08T08:06:52;3.98;6.54
19536;HTU21D;9913;51.168;4.124;2024-03-08T08:09:22;4.17;8.18
19536;HTU21D;9913;51.168;4.124;2024-03-08T08:12:03;4.18;9.22
19536;HTU21D;9913;51.168;4.124;2024-03-08T08:14:31;4.24;11.14
19536;HTU21D;9913;51.168;4.124;2024-03-08T08:17:00;4.36;9.24
19536;HTU21D;9913;51.168;4.124;2024-03-08T08:19:31;4.29;9.95
19536;HTU21D;9913;51.168;4.124;2024-03-08T08:22:00;4.43;9.90
19536;HTU21D;9913;51.168;4.124;2024-03-08T08:24:29;4.42;11.27
19536;HTU21D;9913;51.168;4.124;2024-03-08T08:26:57;4.50;9.32
19536;HTU21D;9913;51.168;4.124;2024-03-08T08:29:27;4.60;12.21
19536;HTU21D;9913;51.168;4.124;2024-03-08T08:31:57;4.68;12.89
19536;HTU21D;9913;51.168;4.124;2024-03-08T08:34:28;4.90;13.65
19536;HTU21D;9913;51.168;4.124;2024-03-08T08:36:57;4.83;13.82
19536;HTU21D;9913;51.168;4.124;2024-03-08T08:39:25;4.91;13.66
19536;HTU21D;9913;51.168;4.124;2024-03-08T08:41:55;4.97;14.96
19536;HTU21D;9913;51.168;4.124;2024-03-08T08:44:23;5.06;14.91
19536;HTU21D;9913;51.168;4.124;2024-03-08T08:46:54;5.13;15.15
19536;HTU21D;9913;51.168;4.124;2024-03-08T08:49:32;5.17;15.62
19536;HTU21D;9913;51.168;4.124;2024-03-08T08:52:00;5.38;16.30
19536;HTU21D;9913;51.168;4.124;2024-03-08T08:54:42;5.41;17.89
19536;HTU21D;9913;51.168;4.124;2024-03-08T08:57:15;5.46;16.92
19536;HTU21D;9913;51.168;4.124;2024-03-08T08:59:44;5.65;16.62
19536;HTU21D;9913;51.168;4.124;2024-03-08T09:02:14;5.75;19.25
19536;HTU21D;9913;51.168;4.124;2024-03-08T09:04:44;5.83;17.69
19536;HTU21D;9913;51.168;4.124;2024-03-08T09:07:13;5.84;18.78
19536;HTU21D;9913;51.168;4.124;2024-03-08T09:09:42;6.07;17.42
19536;HTU21D;9913;51.168;4.124;2024-03-08T09:12:10;6.15;22.66
19536;HTU21D;9913;51.168;4.124;2024-03-08T09:14:40;6.22;18.61
19536;HTU21D;9913;51.168;4.124;2024-03-08T09:17:08;6.44;21.20
19536;HTU21D;9913;51.168;4.124;2024-03-08T09:19:38;6.54;19.17
19536;HTU21D;9913;51.168;4.124;2024-03-08T09:22:07;6.60;19.15
19536;HTU21D;9913;51.168;4.124;2024-03-08T09:24:35;6.84;21.16
19536;HTU21D;9913;51.168;4.124;2024-03-08T09:27:04;6.89;20.35
19536;HTU21D;9913;51.168;4.124;2024-03-08T09:29:32;7.00;20.93
19536;HTU21D;9913;51.168;4.124;2024-03-08T09:32:01;6.94;20.96
19536;HTU21D;9913;51.168;4.124;2024-03-08T09:34:30;7.02;22.08
19536;HTU21D;9913;51.168;4.124;2024-03-08T09:37:05;7.15;21.26
19536;HTU21D;9913;51.168;4.124;2024-03-08T09:39:36;7.22;21.63
19536;HTU21D;9913;51.168;4.124;2024-03-08T09:42:05;7.17;20.79
19536;HTU21D;9913;51.168;4.124;2024-03-08T09:44:34;7.37;21.44
19536;HTU21D;9913;51.168;4.124;2024-03-08T09:47:04;7.46;18.22
19536;HTU21D;9913;51.168;4.124;2024-03-08T09:49:33;7.63;20.60
19536;HTU21D;9913;51.168;4.124;2024-03-08T09:52:07;7.63;20.76
19536;HTU21D;9913;51.168;4.124;2024-03-08T09:54:37;7.78;21.50
19536;HTU21D;9913;51.168;4.124;2024-03-08T09:57:06;7.76;20.95
19536;HTU21D;9913;51.168;4.124;2024-03-08T09:59:36;7.77;21.05
19536;HTU21D;9913;51.168;4.124;2024-03-08T10:02:16;7.93;21.27
19536;HTU21D;9913;51.168;4.124;2024-03-08T10:04:46;8.18;21.17
19536;HTU21D;9913;51.168;4.124;2024-03-08T10:07:16;8.35;18.15
19536;HTU21D;9913;51.168;4.124;2024-03-08T10:09:44;7.93;21.14
19536;HTU21D;9913;51.168;4.124;2024-03-08T10:12:19;8.30;22.24
19536;HTU21D;9913;51.168;4.124;2024-03-08T10:14:47;8.48;21.17
19536;HTU21D;9913;51.168;4.124;2024-03-08T10:17:16;8.45;20.90
19536;HTU21D;9913;51.168;4.124;2024-03-08T10:19:50;8.62;21.65
19536;HTU21D;9913;51.168;4.124;2024-03-08T10:22:21;8.73;20.65
19536;HTU21D;9913;51.168;4.124;2024-03-08T10:24:50;8.49;20.17
19536;HTU21D;9913;51.168;4.124;2024-03-08T10:27:19;8.86;19.93
19536;HTU21D;9913;51.168;4.124;2024-03-08T10:29:47;8.67;19.89
19536;HTU21D;9913;51.168;4.124;2024-03-08T10:32:19;8.61;18.64
19536;HTU21D;9913;51.168;4.124;2024-03-08T10:34:47;8.89;18.67
19536;HTU21D;9913;51.168;4.124;2024-03-08T10:37:22;8.95;19.16
19536;HTU21D;9913;51.168;4.124;2024-03-08T10:40:03;9.15;19.16
19536;HTU21D;9913;51.168;4.124;2024-03-08T10:42:40;9.23;19.91
19536;HTU21D;9913;51.168;4.124;2024-03-08T10:45:15;9.09;19.19
19536;HTU21D;9913;51.168;4.124;2024-03-08T10:47:48;9.32;18.14
19536;HTU21D;9913;51.168;4.124;2024-03-08T10:50:19;9.45;18.57
19536;HTU21D;9913;51.168;4.124;2024-03-08T10:52:51;9.83;17.77
19536;HTU21D;9913;51.168;4.124;2024-03-08T10:55:21;9.46;17.32
19536;HTU21D;9913;51.168;4.124;2024-03-08T10:57:49;9.59;17.85
19536;HTU21D;9913;51.168;4.124;2024-03-08T11:00:18;9.82;17.95
19536;HTU21D;9913;51.168;4.124;2024-03-08T11:02:54;9.78;17.71
19536;HTU21D;9913;51.168;4.124;2024-03-08T11:05:40;9.74;16.86
19536;HTU21D;9913;51.168;4.124;2024-03-08T11:08:18;9.74;16.56
19536;HTU21D;9913;51.168;4.124;2024-03-08T11:10:47;10.08;16.35
19536;HTU21D;9913;51.168;4.124;2024-03-08T11:13:34;9.80;15.71
19536;HTU21D;9913;51.168;4.124;2024-03-08T11:16:07;10.09;16.28
19536;HTU21D;9913;51.168;4.124;2024-03-08T11:18:36;10.07;16.09
19536;HTU21D;9913;51.168;4.124;2024-03-08T11:21:08;10.42;15.52
19536;HTU21D;9913;51.168;4.124;2024-03-08T11:23:41;10.35;15.59
19536;HTU21D;9913;51.168;4.124;2024-03-08T11:26:20;10.51;14.82
19536;HTU21D;9913;51.168;4.124;2024-03-08T11:28:49;10.11;14.42
19536;HTU21D;9913;51.168;4.124;2024-03-08T11:31:24;10.33;16.15
19536;HTU21D;9913;51.168;4.124;2024-03-08T11:33:54;10.59;15.50
19536;HTU21D;9913;51.168;4.124;2024-03-08T11:36:24;10.43;14.87
19536;HTU21D;9913;51.168;4.124;2024-03-08T11:38:57;10.48;15.39
19536;HTU21D;9913;51.168;4.124;2024-03-08T11:41:26;10.63;13.94
19536;HTU21D;9913;51.168;4.124;2024-03-08T11:44:03;10.42;13.62
19536;HTU21D;9913;51.168;4.124;2024-03-08T11:46:34;10.40;12.74
19536;HTU21D;9913;51.168;4.124;2024-03-08T11:49:02;10.68;14.37
19536;HTU21D;9913;51.168;4.124;2024-03-08T11:51:33;10.84;12.88
19536;HTU21D;9913;51.168;4.124;2024-03-08T11:54:03;10.62;12.30
19536;HTU21D;9913;51.168;4.124;2024-03-08T11:56:33;10.59;12.06
19536;HTU21D;9913;51.168;4.124;2024-03-08T11:59:02;10.99;13.07
19536;HTU21D;9913;51.168;4.124;2024-03-08T12:01:30;11.34;12.58
19536;HTU21D;9913;51.168;4.124;2024-03-08T12:03:59;11.48;11.75
19536;HTU21D;9913;51.168;4.124;2024-03-08T12:06:36;11.07;11.64
19536;HTU21D;9913;51.168;4.124;2024-03-08T12:09:09;10.83;11.01
19536;HTU21D;9913;51.168;4.124;2024-03-08T12:11:38;11.19;13.13
19536;HTU21D;9913;51.168;4.124;2024-03-08T12:14:07;11.19;11.43
19536;HTU21D;9913;51.168;4.124;2024-03-08T12:16:36;11.39;10.69
19536;HTU21D;9913;51.168;4.124;2024-03-08T12:19:05;10.87;9.07
19536;HTU21D;9913;51.168;4.124;2024-03-08T12:21:35;11.39;12.11
19536;HTU21D;9913;51.168;4.124;2024-03-08T12:24:05;11.64;11.10
19536;HTU21D;9913;51.168;4.124;2024-03-08T12:26:38;11.33;11.53
19536;HTU21D;9913;51.168;4.124;2024-03-08T12:29:20;11.45;10.39
19536;HTU21D;9913;51.168;4.124;2024-03-08T12:31:51;11.31;8.78
19536;HTU21D;9913;51.168;4.124;2024-03-08T12:34:21;11.42;10.41
19536;HTU21D;9913;51.168;4.124;2024-03-08T12:36:51;11.24;9.71
19536;HTU21D;9913;51.168;4.124;2024-03-08T12:39:22;11.48;9.85
19536;HTU21D;9913;51.168;4.124;2024-03-08T12:41:56;11.58;10.92
19536;HTU21D;9913;51.168;4.124;2024-03-08T12:44:26;11.94;9.41
19536;HTU21D;9913;51.168;4.124;2024-03-08T12:46:56;12.13;9.45
19536;HTU21D;9913;51.168;4.124;2024-03-08T12:49:27;12.12;5.98
19536;HTU21D;9913;51.168;4.124;2024-03-08T12:51:55;12.03;4.59
19536;HTU21D;9913;51.168;4.124;2024-03-08T12:54:23;12.07;6.61
19536;HTU21D;9913;51.168;4.124;2024-03-08T12:56:52;12.23;8.98
19536;HTU21D;9913;51.168;4.124;2024-03-08T12:59:23;12.58;6.37
19536;HTU21D;9913;51.168;4.124;2024-03-08T13:01:52;12.53;5.37
19536;HTU21D;9913;51.168;4.124;2024-03-08T13:04:21;12.40;4.53
19536;HTU21D;9913;51.168;4.124;2024-03-08T13:06:50;12.00;3.56
19536;HTU21D;9913;51.168;4.124;2024-03-08T13:09:21;12.16;6.28
19536;HTU21D;9913;51.168;4.124;2024-03-08T13:11:50;12.30;3.93
19536;HTU21D;9913;51.168;4.124;2024-03-08T13:14:22;12.30;4.48
19536;HTU21D;9913;51.168;4.124;2024-03-08T13:16:51;12.10;4.73
19536;HTU21D;9913;51.168;4.124;2024-03-08T13:19:19;12.29;5.96
19536;HTU21D;9913;51.168;4.124;2024-03-08T13:21:49;12.36;6.32
19536;HTU21D;9913;51.168;4.124;2024-03-08T13:24:18;12.23;4.96
19536;HTU21D;9913;51.168;4.124;2024-03-08T13:26:47;12.55;4.62
19536;HTU21D;9913;51.168;4.124;2024-03-08T13:29:17;12.15;4.25
19536;HTU21D;9913;51.168;4.124;2024-03-08T13:31:47;12.37;4.49
19536;HTU21D;9913;51.168;4.124;2024-03-08T13:34:19;12.21;4.77
19536;HTU21D;9913;51.168;4.124;2024-03-08T13:36:55;12.31;4.91
19536;HTU21D;9913;51.168;4.124;2024-03-08T13:39:27;12.13;2.82
19536;HTU21D;9913;51.168;4.124;2024-03-08T13:41:58;12.26;3.96
19536;HTU21D;9913;51.168;4.124;2024-03-08T13:44:26;11.99;5.24
19536;HTU21D;9913;51.168;4.124;2024-03-08T13:46:56;12.57;6.25
19536;HTU21D;9913;51.168;4.124;2024-03-08T13:49:25;12.18;2.96
19536;HTU21D;9913;51.168;4.124;2024-03-08T13:51:54;12.42;3.61
19536;HTU21D;9913;51.168;4.124;2024-03-08T13:54:25;12.18;3.24
19536;HTU21D;9913;51.168;4.124;2024-03-08T13:56:58;12.29;5.15
19536;HTU21D;9913;51.168;4.124;2024-03-08T13:59:27;12.61;4.57
19536;HTU21D;9913;51.168;4.124;2024-03-08T14:01:57;12.16;3.63
19536;HTU21D;9913;51.168;4.124;2024-03-08T14:04:26;12.32;4.64
19536;HTU21D;9913;51.168;4.124;2024-03-08T14:06:55;12.08;4.51
19536;HTU21D;9913;51.168;4.124;2024-03-08T14:09:30;12.27;4.92
19536;HTU21D;9913;51.168;4.124;2024-03-08T14:11:58;12.38;3.83
19536;HTU21D;9913;51.168;4.124;2024-03-08T14:14:27;12.33;4.05
19536;HTU21D;9913;51.168;4.124;2024-03-08T14:16:56;12.28;4.09
19536;HTU21D;9913;51.168;4.124;2024-03-08T14:19:27;12.43;3.25
19536;HTU21D;9913;51.168;4.124;2024-03-08T14:21:55;12.53;3.30
19536;HTU21D;9913;51.168;4.124;2024-03-08T14:24:23;12.58;4.28
19536;HTU21D;9913;51.168;4.124;2024-03-08T14:26:52;12.65;3.72
19536;HTU21D;9913;51.168;4.124;2024-03-08T14:29:20;12.44;3.22
19536;HTU21D;9913;51.168;4.124;2024-03-08T14:31:49;12.17;4.22
19536;HTU21D;9913;51.168;4.124;2024-03-08T14:34:17;12.29;3.19
19536;HTU21D;9913;51.168;4.124;2024-03-08T14:36:48;12.35;3.54
19536;HTU21D;9913;51.168;4.124;2024-03-08T14:39:17;12.41;3.65
19536;HTU21D;9913;51.168;4.124;2024-03-08T14:41:48;12.57;3.80
19536;HTU21D;9913;51.168;4.124;2024-03-08T14:44:20;12.52;2.88
19536;HTU21D;9913;51.168;4.124;2024-03-08T14:46:49;12.71;3.29
19536;HTU21D;9913;51.168;4.124;2024-03-08T14:49:17;12.36;2.34
19536;HTU21D;9913;51.168;4.124;2024-03-08T14:51:46;12.42;2.61
19536;HTU21D;9913;51.168;4.124;2024-03-08T14:54:16;12.30;2.55
19536;HTU21D;9913;51.168;4.124;2024-03-08T14:56:49;12.51;3.42
19536;HTU21D;9913;51.168;4.124;2024-03-08T14:59:18;12.19;2.55
19536;HTU21D;9913;51.168;4.124;2024-03-08T15:01:47;12.43;2.67
19536;HTU21D;9913;51.168;4.124;2024-03-08T15:04:16;12.28;1.26
19536;HTU21D;9913;51.168;4.124;2024-03-08T15:06:45;12.32;2.76
19536;HTU21D;9913;51.168;4.124;2024-03-08T15:09:19;12.13;3.54
19536;HTU21D;9913;51.168;4.124;2024-03-08T15:11:48;12.34;3.41
19536;HTU21D;9913;51.168;4.124;2024-03-08T15:14:17;12.12;2.54
19536;HTU21D;9913;51.168;4.124;2024-03-08T15:16:46;12.13;1.97
19536;HTU21D;9913;51.168;4.124;2024-03-08T15:19:18;12.22;3.80
19536;HTU21D;9913;51.168;4.124;2024-03-08T15:21:47;12.35;3.73
19536;HTU21D;9913;51.168;4.124;2024-03-08T15:24:17;12.27;3.14
19536;HTU21D;9913;51.168;4.124;2024-03-08T15:26:50;12.41;3.36
19536;HTU21D;9913;51.168;4.124;2024-03-08T15:29:22;12.67;2.32
19536;HTU21D;9913;51.168;4.124;2024-03-08T15:31:54;12.99;0.96
19536;HTU21D;9913;51.168;4.124;2024-03-08T15:34:22;12.80;0.18
19536;HTU21D;9913;51.168;4.124;2024-03-08T15:36:53;12.58;1.16
19536;HTU21D;9913;51.168;4.124;2024-03-08T15:39:21;12.46;1.64
19536;HTU21D;9913;51.168;4.124;2024-03-08T15:41:53;12.12;2.42
19536;HTU21D;9913;51.168;4.124;2024-03-08T15:44:22;12.23;3.84
19536;HTU21D;9913;51.168;4.124;2024-03-08T15:46:53;11.81;3.62
19536;HTU21D;9913;51.168;4.124;2024-03-08T15:49:21;11.58;5.02
19536;HTU21D;9913;51.168;4.124;2024-03-08T15:51:51;11.33;6.60
19536;HTU21D;9913;51.168;4.124;2024-03-08T15:54:20;11.26;5.28
19536;HTU21D;9913;51.168;4.124;2024-03-08T15:56:48;11.36;5.89
19536;HTU21D;9913;51.168;4.124;2024-03-08T15:59:18;11.29;5.76
19536;HTU21D;9913;51.168;4.124;2024-03-08T16:01:48;11.37;5.72
19536;HTU21D;9913;51.168;4.124;2024-03-08T16:04:19;11.27;6.12
19536;HTU21D;9913;51.168;4.124;2024-03-08T16:06:48;11.28;4.77